Time;durP1;ratioP1;P1;durP2;ratioP2;P2;SDS_P1;SDS_P2;PMS_P1;PMS_P2;Temp;Humidity;BMP_temperature;BMP_pressure;BME280_temperature;BME280_humidity;BME280_pressure;Samples;Min_cycle;Max_cycle;Signal;HPM_P1;HPM_P2
2023/12/02 00:00:29;;;;;;;38.90;26.10;;;;;;;-0.59;91.60;98937.57;106150;1256;73767;-77
2023/12/02 00:02:56;;;;;;;35.40;21.80;;;;;;;-0.48;91.32;98943.88;106226;1261;68629;-77
2023/12/02 00:05:24;;;;;;;36.70;23.70;;;;;;;-0.40;91.12;98947.45;105854;1257;71085;-76
2023/12/02 00:07:52;;;;;;;34.30;22.00;;;;;;;-0.43;91.40;98946.77;106221;1260;60403;-75
2023/12/02 00:10:19;;;;;;;34.60;22.60;;;;;;;-0.47;91.80;98942.41;106279;1259;60459;-77
2023/12/02 00:12:47;;;;;;;38.70;24.50;;;;;;;-0.51;92.05;98948.27;106446;1256;75871;-76
2023/12/02 00:15:14;;;;;;;32.30;21.50;;;;;;;-0.52;92.19;98953.91;106511;1260;69272;-78
2023/12/02 00:17:42;;;;;;;30.80;21.70;;;;;;;-0.42;92.14;98960.80;106497;1256;72715;-76
2023/12/02 00:20:10;;;;;;;32.00;21.40;;;;;;;-0.31;91.65;98962.55;106412;1255;60438;-75
2023/12/02 00:22:38;;;;;;;34.60;24.00;;;;;;;-0.30;91.56;98962.70;106198;1254;60624;-76
2023/12/02 00:25:06;;;;;;;33.80;23.20;;;;;;;-0.36;91.61;98960.53;105794;1254;71374;-74
2023/12/02 00:27:33;;;;;;;34.60;23.70;;;;;;;-0.41;92.03;98960.67;105820;1256;68685;-75
2023/12/02 00:30:01;;;;;;;31.50;21.90;;;;;;;-0.46;92.00;98956.05;105988;1257;71460;-74
2023/12/02 00:32:29;;;;;;;32.60;22.50;;;;;;;-0.43;91.79;98958.96;105974;1256;61127;-73
2023/12/02 00:34:57;;;;;;;33.10;22.20;;;;;;;-0.34;91.46;98956.36;105644;1257;60534;-73
2023/12/02 00:37:25;;;;;;;33.40;23.30;;;;;;;-0.34;91.45;98964.21;105738;1256;72781;-74
2023/12/02 00:39:52;;;;;;;36.80;25.80;;;;;;;-0.38;91.77;98963.46;105626;1256;69983;-76
2023/12/02 00:42:20;;;;;;;35.10;23.60;;;;;;;-0.43;91.91;98959.15;105936;1257;72651;-73
2023/12/02 00:44:47;;;;;;;37.20;25.30;;;;;;;-0.48;92.02;98956.75;107638;1256;60235;-74
2023/12/02 00:47:15;;;;;;;38.70;24.50;;;;;;;-0.49;92.34;98961.85;106447;1255;60430;-75
2023/12/02 00:49:43;;;;;;;36.70;24.60;;;;;;;-0.38;92.26;98959.76;105888;1260;73864;-75
2023/12/02 00:52:10;;;;;;;34.20;23.20;;;;;;;-0.23;92.12;98959.83;105723;1261;70140;-73
2023/12/02 00:54:39;;;;;;;36.90;24.60;;;;;;;-0.16;92.51;98961.11;105811;1254;71414;-75
2023/12/02 00:57:06;;;;;;;40.30;27.50;;;;;;;-0.19;92.35;98962.13;105768;1254;60466;-75
2023/12/02 00:59:34;;;;;;;39.90;26.70;;;;;;;-0.20;92.71;98965.71;105768;1260;60466;-76
2023/12/02 01:02:02;;;;;;;38.60;27.40;;;;;;;-0.17;92.97;98962.04;105852;1254;71656;-76
2023/12/02 01:04:29;;;;;;;31.10;22.70;;;;;;;-0.12;93.48;98958.81;105743;1257;68743;-74
2023/12/02 01:06:58;;;;;;;36.20;25.10;;;;;;;0.06;93.48;98960.02;105803;1256;73007;-74
2023/12/02 01:09:26;;;;;;;34.00;23.70;;;;;;;0.22;92.90;98962.26;105664;1261;60498;-75
2023/12/02 01:11:54;;;;;;;35.10;24.80;;;;;;;0.26;92.73;98969.68;105847;1258;60323;-76
2023/12/02 01:14:21;;;;;;;38.10;26.70;;;;;;;0.27;93.08;98973.55;105756;1254;72461;-75
2023/12/02 01:16:49;;;;;;;40.40;26.90;;;;;;;0.30;93.39;98975.92;105771;1260;69933;-74
2023/12/02 01:19:17;;;;;;;41.10;26.70;;;;;;;0.34;93.56;98977.73;105502;1257;72947;-75
2023/12/02 01:21:44;;;;;;;40.50;28.80;;;;;;;0.48;93.02;98963.38;105792;1255;60884;-75
2023/12/02 01:24:14;;;;;;;37.70;28.80;;;;;;;0.59;92.62;98956.20;105674;1254;60535;-74
2023/12/02 01:26:41;;;;;;;38.60;27.60;;;;;;;0.62;92.77;98957.88;105721;1254;74036;-72
2023/12/02 01:29:09;;;;;;;41.20;29.80;;;;;;;0.62;92.81;98954.23;105860;1254;70078;-74
2023/12/02 01:31:36;;;;;;;41.70;29.20;;;;;;;0.58;92.46;98950.88;105803;1254;71548;-74
2023/12/02 01:34:04;;;;;;;43.10;30.30;;;;;;;0.56;92.43;98949.45;105833;1257;60432;-74
2023/12/02 01:36:32;;;;;;;45.50;30.40;;;;;;;0.57;92.76;98949.20;105851;1254;60517;-73
2023/12/02 01:38:59;;;;;;;38.80;29.40;;;;;;;0.68;92.35;98950.77;105821;1259;75555;-75
2023/12/02 01:41:27;;;;;;;44.00;31.20;;;;;;;0.78;91.80;98950.10;105791;1255;70278;-75
2023/12/02 01:43:54;;;;;;;39.30;28.50;;;;;;;0.77;91.64;98954.06;105754;1254;72733;-77
2023/12/02 01:46:22;;;;;;;44.20;29.10;;;;;;;0.71;91.41;98950.49;105769;1255;60475;-74
2023/12/02 01:48:49;;;;;;;39.20;27.50;;;;;;;0.67;91.54;98946.36;105637;1261;60819;-73
2023/12/02 01:51:17;;;;;;;35.90;26.00;;;;;;;0.65;91.77;98959.38;105670;1258;73869;-74
2023/12/02 01:53:44;;;;;;;35.10;24.20;;;;;;;0.64;91.90;98947.58;105611;1260;70266;-75
2023/12/02 01:56:12;;;;;;;34.50;25.80;;;;;;;0.73;91.37;98945.82;105797;1256;71462;-73
2023/12/02 01:58:40;;;;;;;35.30;25.30;;;;;;;0.81;90.76;98951.66;105826;1256;60595;-75
2023/12/02 02:01:08;;;;;;;39.90;27.70;;;;;;;0.75;90.62;98945.11;105748;1257;60314;-74
2023/12/02 02:03:36;;;;;;;39.00;28.70;;;;;;;0.67;90.57;98932.02;105616;1258;72497;-75
2023/12/02 02:06:03;;;;;;;37.30;27.60;;;;;;;0.59;90.63;98938.09;105532;1260;69000;-75
2023/12/02 02:08:31;;;;;;;40.20;28.70;;;;;;;0.53;90.71;98946.09;105714;1256;71462;-76
2023/12/02 02:10:59;;;;;;;38.90;28.00;;;;;;;0.49;90.85;98950.19;105812;1259;60512;-75
2023/12/02 02:13:27;;;;;;;37.80;25.90;;;;;;;0.55;90.48;98953.68;105814;1255;62071;-76
2023/12/02 02:15:55;;;;;;;35.70;25.00;;;;;;;0.56;89.63;98954.18;106018;1256;72548;-76
2023/12/02 02:18:22;;;;;;;36.10;25.30;;;;;;;0.46;89.80;98949.35;106050;1254;70333;-76
2023/12/02 02:20:53;;;;;;;35.90;26.60;;;;;;;0.39;90.44;98946.84;106685;1254;72756;-75
2023/12/02 02:23:22;;;;;;;38.60;27.10;;;;;;;0.38;91.11;98943.77;107417;1254;60430;-75
2023/12/02 02:25:51;;;;;;;38.10;27.20;;;;;;;0.38;91.47;98936.08;105660;1254;60447;-76
2023/12/02 02:28:25;;;;;;;41.00;26.40;;;;;;;0.40;91.50;98932.77;105605;1264;73601;-75
2023/12/02 02:30:53;;;;;;;;;;;;;;;0.53;91.19;98938.52;105829;1259;68748;-75
2023/12/02 02:33:20;;;;;;;38.30;27.30;;;;;;;0.61;90.82;98941.73;105738;1256;71503;-76
2023/12/02 02:35:48;;;;;;;38.20;28.00;;;;;;;0.59;90.76;98950.08;105860;1261;60433;-75
2023/12/02 02:38:16;;;;;;;37.30;26.90;;;;;;;0.54;90.74;98945.06;105864;1257;60411;-74
2023/12/02 02:40:46;;;;;;;38.10;27.80;;;;;;;0.52;90.84;98948.10;105600;1257;73795;-75
2023/12/02 02:43:13;;;;;;;33.50;24.40;;;;;;;0.48;90.95;98950.80;105660;1259;69119;-75
2023/12/02 02:45:41;;;;;;;36.80;25.00;;;;;;;0.55;90.92;98954.56;105630;1261;72678;-78
2023/12/02 02:48:08;;;;;;;36.10;23.90;;;;;;;0.66;90.90;98950.96;105897;1255;60554;-75
2023/12/02 02:50:37;;;;;;;35.50;24.30;;;;;;;0.66;90.88;98953.05;105883;1254;60529;-77
2023/12/02 02:53:04;;;;;;;32.30;23.00;;;;;;;0.59;90.69;98951.84;105886;1259;73917;-77
2023/12/02 02:55:32;;;;;;;40.20;28.00;;;;;;;0.50;90.48;98955.69;105815;1255;69042;-76
2023/12/02 02:58:00;;;;;;;40.10;27.80;;;;;;;0.43;90.68;98959.64;105874;1255;72556;-76
2023/12/02 03:00:27;;;;;;;34.30;24.20;;;;;;;0.39;91.10;98958.29;105838;1256;60447;-75
2023/12/02 03:02:55;;;;;;;36.60;24.80;;;;;;;0.49;90.73;98960.31;105721;1256;60492;-77
2023/12/02 03:05:23;;;;;;;33.70;23.90;;;;;;;0.56;90.30;98962.36;105759;1259;72613;-77
2023/12/02 03:07:55;;;;;;;34.50;25.20;;;;;;;0.50;90.18;98969.79;105726;1259;68921;-76
2023/12/02 03:10:22;;;;;;;40.90;27.50;;;;;;;0.40;90.27;98968.71;105673;1259;70431;-74
2023/12/02 03:12:50;;;;;;;38.00;27.50;;;;;;;0.32;90.65;98976.45;105594;1257;60559;-77
2023/12/02 03:15:18;;;;;;;45.80;31.10;;;;;;;0.26;90.71;98978.52;105798;1255;60486;-75
2023/12/02 03:17:46;;;;;;;43.50;30.40;;;;;;;0.22;90.93;98980.40;105783;1255;72635;-76
2023/12/02 03:20:13;;;;;;;44.90;31.50;;;;;;;0.29;90.84;98970.77;105921;1254;70112;-75
2023/12/02 03:22:41;;;;;;;45.60;31.10;;;;;;;0.39;90.77;98968.74;106049;1257;73574;-75
2023/12/02 03:25:09;;;;;;;44.70;31.50;;;;;;;0.41;91.02;98965.98;106061;1256;60537;-78
2023/12/02 03:27:36;;;;;;;42.00;31.20;;;;;;;0.41;91.44;98960.61;105891;1255;60614;-76
2023/12/02 03:30:05;;;;;;;42.70;29.40;;;;;;;0.42;91.78;98961.92;105990;1256;72726;-76
2023/12/02 03:32:33;;;;;;;42.30;30.40;;;;;;;0.42;91.96;98959.46;105909;1254;68954;-78
2023/12/02 03:35:00;;;;;;;40.20;29.00;;;;;;;0.41;91.57;98965.86;105866;1255;71431;-75
2023/12/02 03:37:28;;;;;;;38.80;27.90;;;;;;;0.48;90.90;98971.21;105775;1259;60398;-78
2023/12/02 03:39:55;;;;;;;40.40;29.10;;;;;;;0.53;90.37;98971.44;105631;1260;60501;-77
2023/12/02 03:42:23;;;;;;;42.50;29.10;;;;;;;0.46;90.26;98976.20;105758;1255;73879;-76
2023/12/02 03:44:51;;;;;;;41.70;29.90;;;;;;;0.37;90.59;98984.06;105868;1256;68865;-77
2023/12/02 03:47:18;;;;;;;45.40;32.50;;;;;;;0.35;91.48;98994.20;105843;1256;70255;-76
2023/12/02 03:49:46;;;;;;;46.30;29.90;;;;;;;0.36;92.13;98995.82;105771;1255;60552;-79
2023/12/02 03:52:14;;;;;;;42.30;29.50;;;;;;;0.38;92.43;98986.80;106305;1256;60348;-75
2023/12/02 03:54:42;;;;;;;43.70;29.60;;;;;;;0.50;92.00;98982.89;105963;1260;73934;-76
2023/12/02 03:57:09;;;;;;;45.50;29.30;;;;;;;0.56;91.77;98983.40;107105;1254;70500;-77
2023/12/02 03:59:38;;;;;;;45.90;31.30;;;;;;;0.56;91.95;98982.73;106454;1260;71501;-76
2023/12/02 04:02:07;;;;;;;44.80;29.90;;;;;;;0.55;92.16;98975.98;105761;1254;60424;-75
2023/12/02 04:04:35;;;;;;;42.40;29.20;;;;;;;0.54;92.03;98979.59;105589;1255;60531;-75
2023/12/02 04:07:04;;;;;;;40.30;26.30;;;;;;;0.53;91.94;98978.98;105584;1256;73754;-75
2023/12/02 04:09:32;;;;;;;39.80;26.50;;;;;;;0.60;91.17;98973.92;105812;1256;70166;-73
2023/12/02 04:12:00;;;;;;;40.40;26.10;;;;;;;0.64;90.76;98968.31;105553;1255;72745;-74
2023/12/02 04:14:27;;;;;;;43.80;28.20;;;;;;;0.61;90.90;98973.13;105735;1256;60498;-74
2023/12/02 04:16:55;;;;;;;40.40;26.60;;;;;;;0.55;91.18;98979.34;105734;1254;62387;-75
2023/12/02 04:19:23;;;;;;;38.90;27.50;;;;;;;0.49;91.06;98976.30;105717;1259;73806;-75
2023/12/02 04:21:51;;;;;;;40.00;27.50;;;;;;;0.47;91.41;98977.89;105556;1256;69977;-74
2023/12/02 04:24:18;;;;;;;41.10;27.00;;;;;;;0.54;91.13;98975.02;105865;1254;71481;-74
2023/12/02 04:26:46;;;;;;;40.40;27.00;;;;;;;0.63;90.85;98968.39;105834;1254;60608;-73
2023/12/02 04:29:14;;;;;;;41.30;28.50;;;;;;;0.65;91.00;98976.64;105609;1256;62082;-74
2023/12/02 04:31:42;;;;;;;42.90;29.10;;;;;;;0.57;90.31;98980.19;105827;1259;72859;-74
2023/12/02 04:34:09;;;;;;;41.00;27.30;;;;;;;0.46;90.23;98976.73;105749;1254;69970;-76
2023/12/02 04:36:37;;;;;;;40.60;26.50;;;;;;;0.41;90.39;98972.45;105764;1256;72694;-76
2023/12/02 04:39:05;;;;;;;36.30;24.90;;;;;;;0.47;90.22;98969.86;105568;1259;60539;-76
2023/12/02 04:41:32;;;;;;;39.80;27.50;;;;;;;0.54;90.41;98969.30;105836;1256;60563;-76
2023/12/02 04:44:01;;;;;;;37.70;25.80;;;;;;;0.54;90.82;98974.05;105659;1255;73878;-75
2023/12/02 04:46:28;;;;;;;37.70;27.00;;;;;;;0.52;91.15;98974.73;105458;1255;70317;-76
2023/12/02 04:48:56;;;;;;;39.50;27.60;;;;;;;0.47;90.98;98978.95;105713;1257;72770;-75
2023/12/02 04:51:23;;;;;;;38.80;25.60;;;;;;;0.43;91.13;98982.05;105724;1257;60883;-75
2023/12/02 04:53:51;;;;;;;49.70;32.60;;;;;;;0.52;91.02;98983.78;105848;1256;60483;-74
2023/12/02 04:56:18;;;;;;;38.50;26.50;;;;;;;0.58;90.78;98989.36;105811;1255;73439;-75
2023/12/02 04:58:46;;;;;;;37.10;25.80;;;;;;;0.59;91.21;98995.76;105686;1260;69992;-76
2023/12/02 05:01:13;;;;;;;40.30;25.70;;;;;;;0.55;91.05;98994.81;105770;1256;72849;-75
2023/12/02 05:03:41;;;;;;;39.70;26.80;;;;;;;0.51;91.40;98992.19;105877;1256;60957;-76
2023/12/02 05:06:13;;;;;;;41.30;27.40;;;;;;;0.49;91.50;98990.45;105911;1259;60452;-75
2023/12/02 05:08:43;;;;;;;37.10;26.00;;;;;;;0.45;91.30;98996.02;105921;1255;73876;-76
2023/12/02 05:11:20;;;;;;;37.90;25.20;;;;;;;0.49;90.99;98993.27;105881;1258;70426;-75
2023/12/02 05:13:48;;;;;;;39.50;26.20;;;;;;;0.57;91.19;98996.11;105874;1254;72598;-75
2023/12/02 05:16:15;;;;;;;40.40;25.20;;;;;;;0.53;91.11;98994.68;105902;1256;60566;-76
2023/12/02 05:18:43;;;;;;;41.10;25.90;;;;;;;0.44;91.02;98997.14;105771;1258;60055;-73
2023/12/02 05:21:11;;;;;;;40.30;26.20;;;;;;;0.37;91.55;99002.56;105626;1260;73863;-74
2023/12/02 05:23:39;;;;;;;45.50;26.80;;;;;;;0.32;91.80;99003.84;105831;1256;72126;-77
2023/12/02 05:26:08;;;;;;;42.50;27.40;;;;;;;0.41;91.67;99016.36;105752;1256;72922;-76
2023/12/02 05:28:35;;;;;;;45.70;28.30;;;;;;;0.47;91.19;99016.02;105702;1256;60545;-75
2023/12/02 05:31:03;;;;;;;43.80;28.20;;;;;;;0.42;91.29;99012.61;105919;1259;60607;-74
2023/12/02 05:33:31;;;;;;;47.20;29.50;;;;;;;0.37;91.66;99012.28;106481;1254;73899;-73
2023/12/02 05:35:59;;;;;;;47.60;30.00;;;;;;;0.33;91.85;99013.65;107390;1254;72129;-73
2023/12/02 05:38:27;;;;;;;41.20;26.70;;;;;;;0.29;91.91;99011.15;105881;1256;71388;-74
2023/12/02 05:40:54;;;;;;;44.00;27.00;;;;;;;0.35;91.44;99001.68;105605;1257;61177;-75
2023/12/02 05:43:22;;;;;;;47.90;29.10;;;;;;;0.40;91.03;99000.77;105735;1255;60436;-75
2023/12/02 05:45:50;;;;;;;48.30;29.10;;;;;;;0.33;91.42;99005.26;105765;1255;73424;-77
2023/12/02 05:48:20;;;;;;;49.60;29.30;;;;;;;0.28;91.98;99006.91;105757;1256;70067;-75
2023/12/02 05:50:48;;;;;;;50.00;30.10;;;;;;;0.24;92.17;99010.58;105920;1256;71481;-74
2023/12/02 05:53:15;;;;;;;48.10;27.80;;;;;;;0.21;92.30;99015.16;105547;1261;60418;-75
2023/12/02 05:55:43;;;;;;;49.80;30.60;;;;;;;0.28;92.12;99016.70;106088;1256;60604;-76
2023/12/02 05:58:10;;;;;;;52.00;30.90;;;;;;;0.35;91.76;99029.34;105835;1255;72402;-77
2023/12/02 06:00:38;;;;;;;50.20;30.00;;;;;;;0.33;92.14;99026.05;105718;1261;69144;-83
2023/12/02 06:03:06;;;;;;;52.00;31.80;;;;;;;0.30;92.46;99010.06;106058;1256;72784;-81
2023/12/02 06:05:34;;;;;;;51.50;31.00;;;;;;;0.27;92.54;99013.66;106131;1255;60390;-79
2023/12/02 06:08:02;;;;;;;52.60;31.10;;;;;;;0.23;92.50;99009.89;105806;1258;60449;-80
2023/12/02 06:10:29;;;;;;;51.70;29.90;;;;;;;0.28;92.17;98987.73;105612;1256;72485;-78
2023/12/02 06:12:57;;;;;;;55.30;32.80;;;;;;;0.34;91.72;98984.17;105740;1254;73107;-80
2023/12/02 06:15:26;;;;;;;54.00;31.30;;;;;;;0.31;91.92;98987.83;105749;1257;72824;-75
2023/12/02 06:17:57;;;;;;;57.40;30.40;;;;;;;0.28;92.18;98990.92;105647;1256;60550;-77
2023/12/02 06:20:25;;;;;;;58.40;31.80;;;;;;;0.21;92.24;98997.70;105406;1255;282381;-79
2023/12/02 06:25:28;;;;;;;49.60;28.80;;;;;;;0.25;92.39;98995.28;103352;1292;600288;-82
2023/12/02 06:27:56;;;;;;;48.30;27.90;;;;;;;0.32;91.91;99001.15;105906;1273;59356;-82
2023/12/02 06:30:23;;;;;;;51.00;28.10;;;;;;;0.31;91.82;99005.10;105026;1273;61530;-82
2023/12/02 06:32:51;;;;;;;51.40;29.20;;;;;;;0.25;92.23;99008.75;105712;1267;71039;-79
2023/12/02 06:35:19;;;;;;;51.80;29.90;;;;;;;0.19;92.46;99010.02;106138;1268;70833;-80
2023/12/02 06:37:46;;;;;;;53.90;29.30;;;;;;;0.18;92.69;99008.74;105459;1272;71148;-82
2023/12/02 06:40:14;;;;;;;52.20;27.80;;;;;;;0.27;92.18;99004.74;105324;1264;182135;-81
2023/12/02 06:42:42;;;;;;;49.10;26.70;;;;;;;0.35;91.76;99004.40;105767;1264;59449;-79
2023/12/02 06:45:10;;;;;;;48.40;27.50;;;;;;;0.32;91.63;99007.50;105486;1272;72096;-80
2023/12/02 06:47:37;;;;;;;48.70;28.30;;;;;;;0.26;91.83;99009.35;105317;1270;70209;-79
2023/12/02 06:50:06;;;;;;;49.40;29.30;;;;;;;0.21;92.14;99006.44;105360;1270;72769;-80
2023/12/02 06:52:33;;;;;;;50.70;26.80;;;;;;;0.18;92.17;99003.49;105434;1269;59800;-80
2023/12/02 06:55:01;;;;;;;45.80;26.50;;;;;;;0.27;91.95;99007.35;105342;1264;60012;-79
2023/12/02 06:57:31;;;;;;;47.80;28.20;;;;;;;0.35;91.60;99011.38;105302;1267;71983;-79
2023/12/02 06:59:59;;;;;;;48.60;27.60;;;;;;;0.33;91.90;99012.77;105514;1264;70680;-80
2023/12/02 07:02:27;;;;;;;45.40;28.40;;;;;;;0.32;92.39;99008.35;107190;1263;71235;-80
2023/12/02 07:04:55;;;;;;;52.10;30.20;;;;;;;0.33;92.66;99005.98;107192;1263;59683;-80
2023/12/02 07:07:22;;;;;;;49.10;28.60;;;;;;;0.34;92.45;99008.33;105895;1263;60292;-80
2023/12/02 07:09:50;;;;;;;49.90;28.20;;;;;;;0.44;92.07;99006.91;105838;1263;72182;-79
2023/12/02 07:12:18;;;;;;;48.90;29.50;;;;;;;0.53;91.67;99006.81;107774;1263;68646;-75
2023/12/02 07:14:45;;;;;;;51.30;29.60;;;;;;;0.50;91.51;99007.95;108740;1263;70837;-82
2023/12/02 07:17:13;;;;;;;51.20;29.40;;;;;;;0.48;91.85;99008.45;107536;1264;59576;-81
2023/12/02 07:19:41;;;;;;;50.50;31.60;;;;;;;0.48;92.09;99017.53;106496;1264;59759;-84
2023/12/02 07:22:08;;;;;;;49.10;28.30;;;;;;;0.50;92.27;99024.00;107825;1264;72314;-85
2023/12/02 07:24:36;;;;;;;51.20;29.10;;;;;;;0.62;91.94;99018.70;106709;1263;72081;-81
2023/12/02 07:27:04;;;;;;;50.40;29.90;;;;;;;0.74;91.72;99016.70;106310;1269;71431;-81
2023/12/02 07:29:31;;;;;;;49.40;29.30;;;;;;;0.73;91.69;99010.67;106303;1267;59669;-79
2023/12/02 07:32:02;;;;;;;47.70;28.70;;;;;;;0.69;91.79;99003.66;106904;1252;59962;-82
2023/12/02 07:34:30;;;;;;;50.20;30.90;;;;;;;0.65;91.47;99004.52;107244;1253;73128;-83
2023/12/02 07:36:57;;;;;;;51.20;30.00;;;;;;;0.62;91.47;98999.39;107679;1254;68951;-83
2023/12/02 07:39:25;;;;;;;53.40;31.00;;;;;;;0.71;91.49;99000.88;107931;1254;71240;-82
2023/12/02 07:41:52;;;;;;;52.20;30.20;;;;;;;0.82;91.15;99001.80;107397;1257;59727;-80
2023/12/02 07:44:20;;;;;;;50.60;31.30;;;;;;;0.79;91.00;99002.15;106450;1257;60057;-82
2023/12/02 07:46:48;;;;;;;50.50;30.70;;;;;;;0.74;91.11;98999.05;106838;1254;72354;-82
2023/12/02 07:49:16;;;;;;;48.30;30.80;;;;;;;0.72;91.60;99000.27;106679;1254;68464;-80
2023/12/02 07:51:43;;;;;;;45.80;27.60;;;;;;;0.74;91.76;99000.33;107177;1253;71299;-81
2023/12/02 07:54:11;;;;;;;46.20;27.50;;;;;;;0.83;91.22;99004.95;109150;1254;62963;-81
2023/12/02 07:56:39;;;;;;;47.70;27.50;;;;;;;0.92;90.60;99001.67;108874;1254;59628;-83
2023/12/02 07:59:06;;;;;;;43.20;26.60;;;;;;;0.90;90.70;98996.92;109291;1254;71798;-81
2023/12/02 08:01:34;;;;;;;41.40;25.20;;;;;;;0.87;90.89;98995.58;108840;1254;68763;-82
2023/12/02 08:04:02;;;;;;;46.60;27.70;;;;;;;0.85;90.78;98992.80;108894;1253;71064;-82
2023/12/02 08:06:29;;;;;;;47.10;26.40;;;;;;;0.83;90.82;98994.16;108780;1252;58136;-82
2023/12/02 08:08:57;;;;;;;38.90;24.00;;;;;;;0.84;90.32;98998.30;109320;1252;61065;-81
2023/12/02 08:11:24;;;;;;;42.30;25.10;;;;;;;0.93;89.81;98999.83;109422;1251;73108;-83
2023/12/02 08:13:52;;;;;;;41.00;25.20;;;;;;;0.93;89.72;99001.37;109331;1253;68745;-82
2023/12/02 08:16:20;;;;;;;41.40;25.60;;;;;;;0.89;90.00;98995.39;109263;1254;71407;-82
2023/12/02 08:18:47;;;;;;;42.60;27.40;;;;;;;0.85;89.96;98994.17;108669;1254;58395;-80
2023/12/02 08:21:15;;;;;;;43.10;26.00;;;;;;;0.77;90.12;98988.25;109229;1254;60291;-82
2023/12/02 08:23:42;;;;;;;40.90;25.10;;;;;;;0.77;89.87;98998.66;109126;1253;72053;-81
2023/12/02 08:26:10;;;;;;;42.70;25.70;;;;;;;0.82;89.38;99002.30;108927;1253;69252;-82
2023/12/02 08:28:38;;;;;;;39.70;25.50;;;;;;;0.88;89.13;99005.27;109078;1253;71200;-82
2023/12/02 08:31:05;;;;;;;48.10;29.40;;;;;;;0.83;89.20;99008.83;109109;1253;59119;-81
2023/12/02 08:33:33;;;;;;;43.40;28.00;;;;;;;0.74;89.51;99009.18;109123;1253;59473;-82
2023/12/02 08:36:01;;;;;;;48.40;30.30;;;;;;;0.71;89.99;99007.70;109183;1254;71622;-82
2023/12/02 08:38:28;;;;;;;46.50;28.10;;;;;;;0.70;90.41;99000.95;108821;1253;68890;-82
2023/12/02 08:40:56;;;;;;;47.90;28.90;;;;;;;0.81;89.99;98996.61;108406;1259;74644;-80
2023/12/02 08:43:24;;;;;;;53.40;31.70;;;;;;;0.90;89.54;98999.56;108284;1254;59630;-80
2023/12/02 08:45:52;;;;;;;50.10;30.70;;;;;;;0.87;89.61;99000.45;107970;1253;59611;-82
2023/12/02 08:48:20;;;;;;;49.10;30.50;;;;;;;0.81;90.02;99001.27;109036;1253;71449;-79
2023/12/02 08:50:47;;;;;;;44.70;28.70;;;;;;;0.76;90.19;99009.68;108760;1254;68721;-79
2023/12/02 08:53:15;;;;;;;38.50;26.60;;;;;;;0.69;89.99;99011.55;107196;1254;71518;-83
2023/12/02 08:55:42;;;;;;;35.00;23.60;;;;;;;0.63;90.01;99018.98;106698;1254;60885;-81
2023/12/02 08:58:10;;;;;;;30.80;20.70;;;;;;;0.68;89.79;99026.63;106104;1257;60111;-83
2023/12/02 09:00:38;;;;;;;32.40;21.30;;;;;;;0.69;89.31;99023.54;106602;1260;70898;-80
2023/12/02 09:03:05;;;;;;;31.90;22.50;;;;;;;0.61;89.33;99025.60;107066;1259;68139;-81
2023/12/02 09:05:33;;;;;;;31.00;21.30;;;;;;;0.48;89.49;99029.56;107546;1254;72690;-79
2023/12/02 09:08:01;;;;;;;34.70;22.70;;;;;;;0.39;89.88;99030.95;108502;1253;59724;-83
2023/12/02 09:10:29;;;;;;;31.40;20.70;;;;;;;0.34;90.11;99030.98;108427;1254;60941;-81
2023/12/02 09:12:57;;;;;;;30.90;20.90;;;;;;;0.38;89.65;99040.10;108279;1253;73094;-82
2023/12/02 09:15:38;;;;;;;37.30;22.20;;;;;;;0.44;89.55;99050.45;107924;1253;70355;-83
2023/12/02 09:18:11;;;;;;;32.30;21.00;;;;;;;0.43;89.89;99047.86;108322;1254;71435;-80
2023/12/02 09:20:50;;;;;;;28.10;19.90;;;;;;;0.41;90.28;99031.02;106649;1254;59656;-83
2023/12/02 09:23:18;;;;;;;32.30;21.10;;;;;;;0.34;90.36;99024.17;106247;1254;59634;-81
2023/12/02 09:25:46;;;;;;;29.40;20.30;;;;;;;0.28;90.35;99016.14;106250;1257;72077;-82
2023/12/02 09:28:16;;;;;;;33.50;20.50;;;;;;;0.23;90.54;99017.79;106492;1257;68136;-82
2023/12/02 09:30:52;;;;;;;30.10;20.40;;;;;;;0.28;90.19;99017.50;107301;1253;72685;-82
2023/12/02 09:33:36;;;;;;;33.70;19.90;;;;;;;0.35;89.87;99016.11;107588;1254;59672;-80
2023/12/02 09:36:04;;;;;;;35.30;21.20;;;;;;;0.33;90.27;99002.00;108478;1254;59172;-80
2023/12/02 09:38:32;;;;;;;37.90;23.00;;;;;;;0.30;90.73;98987.45;106709;1254;73103;-81
2023/12/02 09:41:09;;;;;;;29.80;19.70;;;;;;;0.24;90.70;98981.83;106304;1254;69066;-82
2023/12/02 09:43:53;;;;;;;35.80;19.60;;;;;;;0.19;90.72;98982.20;106793;1254;72869;-81
2023/12/02 09:46:27;;;;;;;32.40;19.40;;;;;;;0.22;90.24;98985.45;108357;1253;59685;-79
2023/12/02 09:49:13;;;;;;;27.80;18.70;;;;;;;0.24;89.96;98991.58;108116;1252;59053;-81
2023/12/02 09:51:47;;;;;;;27.90;20.10;;;;;;;0.17;90.36;98982.89;108780;1254;73997;-80
2023/12/02 09:54:29;;;;;;;30.90;20.50;;;;;;;0.09;90.56;98974.11;108973;1253;70917;-81
2023/12/02 09:57:03;;;;;;;29.90;20.10;;;;;;;0.03;91.01;98986.94;108512;1254;71104;-81
2023/12/02 09:59:37;;;;;;;31.80;20.90;;;;;;;0.02;91.19;98986.83;108418;1254;59599;-82
2023/12/02 10:02:17;;;;;;;31.40;19.50;;;;;;;0.12;90.98;98976.79;108891;1254;58808;-80
2023/12/02 10:05:11;;;;;;;29.80;19.10;;;;;;;0.21;90.62;98979.46;108017;1254;71613;-82
2023/12/02 10:07:52;;;;;;;29.40;19.80;;;;;;;0.14;90.78;98981.33;107328;1254;68783;-80
2023/12/02 10:10:26;;;;;;;30.60;20.40;;;;;;;0.08;91.00;98973.84;107168;1257;71403;-77
2023/12/02 10:13:18;;;;;;;30.70;19.60;;;;;;;0.00;91.18;98967.64;106738;1257;59621;-77
2023/12/02 10:15:48;;;;;;;31.30;19.40;;;;;;;-0.04;91.37;98962.89;106383;1253;59740;-78
2023/12/02 10:18:17;;;;;;;30.20;18.90;;;;;;;0.04;90.85;98958.10;106052;1252;72057;-78
2023/12/02 10:20:45;;;;;;;31.00;19.80;;;;;;;0.06;90.92;98955.48;106068;1256;68479;-78
2023/12/02 10:23:24;;;;;;;26.80;18.70;;;;;;;0.00;91.16;98951.96;106104;1254;71883;-76
2023/12/02 10:25:52;;;;;;;28.80;20.40;;;;;;;-0.07;91.52;98953.89;106710;1256;61561;-73
2023/12/02 10:28:40;;;;;;;35.00;21.10;;;;;;;-0.13;91.77;98956.02;106959;1253;60114;-77
2023/12/02 10:31:08;;;;;;;32.60;20.70;;;;;;;-0.19;91.81;98959.19;105895;1252;71041;-79
2023/12/02 10:34:12;;;;;;;29.90;19.60;;;;;;;-0.10;91.70;98969.67;105862;1253;69194;-76
2023/12/02 10:36:40;;;;;;;33.10;20.80;;;;;;;-0.05;91.59;98972.73;105633;1254;71480;-77
2023/12/02 10:39:10;;;;;;;31.30;20.80;;;;;;;-0.08;91.87;98967.95;105905;1255;60422;-77
2023/12/02 10:41:44;;;;;;;29.90;20.00;;;;;;;-0.11;92.09;98957.05;105732;1259;60489;-76
2023/12/02 10:44:12;;;;;;;34.00;20.10;;;;;;;-0.13;92.37;98949.39;105941;1257;73852;-77
2023/12/02 10:46:39;;;;;;;32.70;21.20;;;;;;;-0.15;92.13;98946.34;105805;1254;70112;-75
2023/12/02 10:49:07;;;;;;;31.40;20.10;;;;;;;-0.05;91.77;98944.02;105850;1257;73506;-76
2023/12/02 10:51:40;;;;;;;32.90;20.80;;;;;;;0.03;91.40;98943.94;106129;1254;60473;-76
2023/12/02 10:54:08;;;;;;;29.00;19.70;;;;;;;-0.04;91.21;98953.36;106067;1254;60527;-77
2023/12/02 10:56:38;;;;;;;31.50;19.40;;;;;;;-0.12;91.47;98946.32;106010;1253;72519;-77
2023/12/02 10:59:07;;;;;;;31.70;20.00;;;;;;;-0.19;91.57;98949.46;106028;1257;69389;-78
2023/12/02 11:01:58;;;;;;;31.50;19.10;;;;;;;-0.25;91.66;98956.35;106085;1254;72685;-77
2023/12/02 11:04:33;;;;;;;29.90;19.00;;;;;;;-0.18;91.43;98959.85;105874;1257;60395;-74
2023/12/02 11:07:03;;;;;;;30.00;20.30;;;;;;;-0.13;91.11;98968.33;105926;1254;60434;-77
2023/12/02 11:09:34;;;;;;;30.50;19.60;;;;;;;-0.18;91.29;98963.66;105977;1256;73894;-77
2023/12/02 11:12:22;;;;;;;27.30;18.90;;;;;;;-0.23;91.72;98954.98;105916;1257;69201;-76
2023/12/02 11:14:54;;;;;;;31.00;20.50;;;;;;;-0.28;91.73;98944.90;105898;1254;71390;-76
2023/12/02 11:17:27;;;;;;;32.50;19.10;;;;;;;-0.32;91.90;98947.30;105832;1255;60538;-77
2023/12/02 11:20:12;;;;;;;30.50;19.00;;;;;;;-0.25;91.71;98952.30;105990;1257;60468;-74
2023/12/02 11:22:58;;;;;;;30.40;20.10;;;;;;;-0.15;91.44;98947.28;105864;1256;72593;-76
2023/12/02 11:25:40;;;;;;;28.10;18.20;;;;;;;-0.20;91.86;98938.23;106002;1254;69998;-77
2023/12/02 11:28:26;;;;;;;37.20;20.80;;;;;;;-0.24;91.96;98941.82;106157;1254;71665;-78